nws-alerts: Checking more than four warning/county codes can delay the loading of your pages. You should use a cron job to get the data.
EllijayWeather Station Historical Data
Daily Summary for April 23, 2019 Units:  English    Metric   Both
Daily Weekly Monthly Yearly Custom
  High: Low: Average:
Temperature: 79.0 °F 45.0 °F 62.3 °F
Dew Point: 54.0 °F 43.7 °F 49.3 °F
Humidity: 97% 36% 68%
Wind Speed: 6.0mph 0.0mph 0.2mph
Wind Gust: 7.0mph - -
Wind- - SSW
Pressure: 30.19 in 30.05 in -
Precipitation: 0.00 in    
Historical Graphs
 
 
Tabular Data for April 23, 2019
Time Temperature Dew Point Pressure Wind Wind Speed Wind Gust Humidity Rainfall Rate (Hourly) solar
00:04 52.9 °F 48.7 °F 30.19 in Calm     86% 0.00 in meteobridge W/m2
00:09 52.5 °F 48.4 °F 30.19 in Calm     86% 0.00 in meteobridge W/m2
00:14 52.3 °F 48.6 °F 30.19 in Calm     87% 0.00 in meteobridge W/m2
00:19 52.3 °F 48.6 °F 30.19 in Calm     87% 0.00 in meteobridge W/m2
00:24 52.2 °F 48.4 °F 30.19 in Calm     87% 0.00 in meteobridge W/m2
00:29 52.2 °F 48.7 °F 30.19 in Calm     88% 0.00 in meteobridge W/m2
00:34 52.0 °F 48.6 °F 30.19 in Calm     88% 0.00 in meteobridge W/m2
00:39 51.8 °F 48.4 °F 30.19 in Calm     88% 0.00 in meteobridge W/m2
00:44 51.8 °F 48.4 °F 30.19 in Calm     88% 0.00 in meteobridge W/m2
00:49 51.6 °F 48.2 °F 30.19 in Calm     88% 0.00 in meteobridge W/m2
00:54 51.6 °F 48.2 °F 30.19 in Calm     88% 0.00 in meteobridge W/m2
00:59 51.4 °F 48.0 °F 30.18 in Calm     88% 0.00 in meteobridge W/m2
01:04 51.4 °F 48.0 °F 30.18 in Calm     88% 0.00 in meteobridge W/m2
01:09 51.3 °F 48.2 °F 30.18 in Calm     89% 0.00 in meteobridge W/m2
01:14 51.3 °F 48.2 °F 30.18 in Calm     89% 0.00 in meteobridge W/m2
01:19 51.1 °F 48.0 °F 30.18 in Calm     89% 0.00 in meteobridge W/m2
01:24 50.9 °F 47.8 °F 30.18 in Calm     89% 0.00 in meteobridge W/m2
01:29 50.7 °F 47.7 °F 30.18 in Calm     89% 0.00 in meteobridge W/m2
01:34 50.7 °F 47.8 °F 30.18 in Calm     90% 0.00 in meteobridge W/m2
01:39 50.5 °F 47.7 °F 30.18 in Calm     90% 0.00 in meteobridge W/m2
01:44 50.5 °F 47.7 °F 30.18 in Calm     90% 0.00 in meteobridge W/m2
01:49 50.4 °F 47.5 °F 30.18 in Calm     90% 0.00 in meteobridge W/m2
01:54 50.4 °F 47.5 °F 30.18 in Calm     90% 0.00 in meteobridge W/m2
01:59 50.2 °F 47.3 °F 30.18 in Calm     90% 0.00 in meteobridge W/m2
02:04 50.0 °F 47.1 °F 30.17 in Calm     90% 0.00 in meteobridge W/m2
02:09 49.8 °F 46.9 °F 30.17 in Calm     90% 0.00 in meteobridge W/m2
02:14 49.8 °F 46.9 °F 30.17 in Calm     90% 0.00 in meteobridge W/m2
02:19 49.6 °F 47.1 °F 30.17 in Calm     91% 0.00 in meteobridge W/m2
02:24 49.5 °F 46.9 °F 30.17 in Calm     91% 0.00 in meteobridge W/m2
02:29 49.5 °F 46.9 °F 30.17 in Calm     91% 0.00 in meteobridge W/m2
02:34 49.3 °F 46.8 °F 30.16 in Calm     91% 0.00 in meteobridge W/m2
02:39 49.1 °F 46.6 °F 30.16 in Calm     91% 0.00 in meteobridge W/m2
02:44 48.9 °F 46.8 °F 30.16 in Calm     92% 0.00 in meteobridge W/m2
02:49 48.9 °F 46.8 °F 30.16 in Calm     92% 0.00 in meteobridge W/m2
02:54 48.9 °F 46.8 °F 30.16 in Calm     92% 0.00 in meteobridge W/m2
02:59 48.7 °F 46.6 °F 30.16 in Calm     92% 0.00 in meteobridge W/m2
03:04 48.7 °F 46.6 °F 30.16 in Calm     92% 0.00 in meteobridge W/m2
03:09 48.6 °F 46.4 °F 30.16 in Calm     92% 0.00 in meteobridge W/m2
03:14 48.6 °F 46.4 °F 30.16 in Calm     92% 0.00 in meteobridge W/m2
03:19 48.6 °F 46.6 °F 30.16 in Calm     93% 0.00 in meteobridge W/m2
03:24 48.4 °F 46.4 °F 30.16 in Calm     93% 0.00 in meteobridge W/m2
03:29 48.4 °F 46.4 °F 30.16 in Calm     93% 0.00 in meteobridge W/m2
03:34 48.2 °F 46.2 °F 30.16 in Calm     93% 0.00 in meteobridge W/m2
03:39 48.2 °F 46.2 °F 30.15 in Calm     93% 0.00 in meteobridge W/m2
03:44 47.8 °F 45.9 °F 30.15 in Calm     93% 0.00 in meteobridge W/m2
03:49 47.8 °F 45.9 °F 30.15 in Calm     93% 0.00 in meteobridge W/m2
03:54 47.8 °F 45.9 °F 30.15 in Calm     93% 0.00 in meteobridge W/m2
03:59 47.7 °F 45.7 °F 30.15 in Calm     93% 0.00 in meteobridge W/m2
04:04 47.7 °F 45.7 °F 30.15 in Calm     93% 0.00 in meteobridge W/m2
04:09 47.7 °F 46.0 °F 30.15 in Calm     94% 0.00 in meteobridge W/m2
04:14 47.7 °F 46.0 °F 30.15 in Calm     94% 0.00 in meteobridge W/m2
04:19 47.7 °F 46.0 °F 30.15 in Calm     94% 0.00 in meteobridge W/m2
04:24 47.5 °F 45.9 °F 30.15 in Calm     94% 0.00 in meteobridge W/m2
04:29 47.5 °F 45.9 °F 30.15 in Calm     94% 0.00 in meteobridge W/m2
04:34 47.5 °F 45.9 °F 30.15 in Calm     94% 0.00 in meteobridge W/m2
04:39 47.3 °F 45.7 °F 30.15 in Calm     94% 0.00 in meteobridge W/m2
04:44 47.1 °F 45.1 °F 30.15 in Calm     93% 0.00 in meteobridge W/m2
04:49 47.1 °F 45.1 °F 30.15 in Calm     93% 0.00 in meteobridge W/m2
04:54 46.9 °F 45.0 °F 30.15 in Calm     93% 0.00 in meteobridge W/m2
04:59 46.9 °F 45.3 °F 30.15 in Calm     94% 0.00 in meteobridge W/m2
05:04 46.9 °F 45.3 °F 30.15 in Calm     94% 0.00 in meteobridge W/m2
05:09 46.8 °F 45.1 °F 30.15 in Calm     94% 0.00 in meteobridge W/m2
05:14 46.6 °F 45.0 °F 30.15 in Calm     94% 0.00 in meteobridge W/m2
05:19 46.4 °F 44.8 °F 30.15 in Calm     94% 0.00 in meteobridge W/m2
05:24 46.2 °F 44.6 °F 30.15 in Calm     94% 0.00 in meteobridge W/m2
05:29 46.2 °F 44.6 °F 30.15 in Calm     94% 0.00 in meteobridge W/m2
05:34 46.0 °F 44.4 °F 30.15 in Calm     94% 0.00 in meteobridge W/m2
05:39 46.0 °F 44.4 °F 30.15 in Calm     94% 0.00 in meteobridge W/m2
05:44 46.0 °F 44.6 °F 30.15 in Calm     95% 0.00 in meteobridge W/m2
05:49 45.9 °F 44.4 °F 30.15 in Calm     95% 0.00 in meteobridge W/m2
05:54 45.9 °F 44.2 °F 30.15 in Calm     94% 0.00 in meteobridge W/m2
05:59 45.7 °F 44.1 °F 30.15 in Calm     94% 0.00 in meteobridge W/m2
06:04 45.7 °F 44.4 °F 30.15 in Calm     95% 0.00 in meteobridge W/m2
06:09 45.5 °F 44.2 °F 30.15 in Calm     95% 0.00 in meteobridge W/m2
06:14 45.5 °F 44.2 °F 30.15 in Calm     95% 0.00 in meteobridge W/m2
06:19 45.5 °F 44.2 °F 30.15 in Calm     95% 0.00 in meteobridge W/m2
06:24 45.3 °F 44.1 °F 30.15 in Calm     95% 0.00 in meteobridge W/m2
06:29 45.3 °F 44.1 °F 30.15 in Calm     95% 0.00 in meteobridge W/m2
06:34 45.1 °F 43.9 °F 30.15 in Calm     95% 0.00 in meteobridge W/m2
06:39 45.1 °F 43.9 °F 30.15 in Calm     95% 0.00 in meteobridge W/m2
06:44 45.1 °F 43.9 °F 30.15 in Calm     95% 0.00 in meteobridge W/m2
06:49 45.1 °F 43.9 °F 30.15 in Calm     95% 0.00 in meteobridge W/m2
06:54 45.1 °F 43.9 °F 30.16 in Calm     95% 0.00 in meteobridge W/m2
06:59 45.1 °F 43.9 °F 30.16 in Calm     95% 0.00 in meteobridge W/m2
07:04 45.1 °F 44.1 °F 30.16 in Calm     96% 0.00 in meteobridge W/m2
07:09 45.1 °F 44.1 °F 30.16 in Calm     96% 0.00 in meteobridge W/m2
07:14 45.1 °F 43.9 °F 30.16 in Calm     95% 0.00 in meteobridge W/m2
07:19 45.1 °F 43.9 °F 30.16 in Calm     95% 0.00 in meteobridge W/m2
07:24 45.1 °F 44.1 °F 30.16 in Calm     96% 0.00 in meteobridge W/m2
07:29 45.1 °F 44.1 °F 30.17 in Calm     96% 0.00 in meteobridge W/m2
07:34 45.0 °F 43.7 °F 30.17 in Calm     95% 0.00 in meteobridge W/m2
07:39 45.0 °F 43.7 °F 30.17 in Calm     95% 0.00 in meteobridge W/m2
07:44 45.1 °F 43.9 °F 30.17 in Calm     95% 0.00 in meteobridge W/m2
07:49 45.1 °F 44.1 °F 30.17 in Calm     96% 0.00 in meteobridge W/m2
07:54 45.3 °F 44.2 °F 30.16 in Calm     96% 0.00 in meteobridge W/m2
07:59 45.7 °F 44.6 °F 30.17 in Calm     96% 0.00 in meteobridge W/m2
08:04 45.9 °F 44.8 °F 30.17 in Calm     96% 0.00 in meteobridge W/m2
08:09 46.0 °F 45.0 °F 30.17 in Calm     96% 0.00 in meteobridge W/m2
08:14 46.4 °F 45.7 °F 30.17 in Calm     97% 0.00 in meteobridge W/m2
08:19 46.8 °F 46.0 °F 30.17 in Calm     97% 0.00 in meteobridge W/m2
08:24 47.1 °F 46.4 °F 30.17 in Calm     97% 0.00 in meteobridge W/m2
08:29 47.5 °F 46.8 °F 30.17 in Calm     97% 0.00 in meteobridge W/m2
08:34 47.8 °F 46.9 °F 30.18 in Calm     97% 0.00 in meteobridge W/m2
08:39 48.6 °F 47.7 °F 30.17 in Calm     97% 0.00 in meteobridge W/m2
08:44 48.9 °F 48.0 °F 30.17 in Calm     97% 0.00 in meteobridge W/m2
08:49 49.5 °F 48.6 °F 30.17 in Calm     97% 0.00 in meteobridge W/m2
08:54 50.0 °F 48.9 °F 30.18 in Calm     96% 0.00 in meteobridge W/m2
08:59 50.5 °F 49.5 °F 30.17 in Calm     96% 0.00 in meteobridge W/m2
09:04 51.4 °F 50.4 °F 30.17 in Calm     96% 0.00 in meteobridge W/m2
09:09 52.2 °F 50.5 °F 30.17 in Calm     94% 0.00 in meteobridge W/m2
09:14 52.7 °F 50.7 °F 30.17 in Calm     93% 0.00 in meteobridge W/m2
09:19 53.2 °F 50.7 °F 30.17 in Calm     91% 0.00 in meteobridge W/m2
09:24 54.0 °F 51.4 °F 30.17 in Calm     91% 0.00 in meteobridge W/m2
09:29 54.9 °F 51.4 °F 30.17 in Calm     88% 0.00 in meteobridge W/m2
09:34 55.6 °F 51.4 °F 30.17 in Calm     86% 0.00 in meteobridge W/m2
09:39 56.1 °F 52.0 °F 30.17 in Calm     86% 0.00 in meteobridge W/m2
09:44 57.0 °F 52.2 °F 30.16 in Calm     84% 0.00 in meteobridge W/m2
09:49 58.3 °F 52.5 °F 30.16 in Calm     81% 0.00 in meteobridge W/m2
09:54 59.2 °F 52.7 °F 30.16 in Calm     79% 0.00 in meteobridge W/m2
09:59 60.4 °F 52.5 °F 30.16 in Calm     75% 0.00 in meteobridge W/m2
10:04 61.5 °F 52.7 °F 30.16 in Calm     73% 0.00 in meteobridge W/m2
10:09 62.4 °F 53.6 °F 30.16 in Calm     73% 0.00 in meteobridge W/m2
10:14 63.3 °F 53.1 °F 30.16 in Calm     69% 0.00 in meteobridge W/m2
10:19 64.0 °F 52.0 °F 30.16 in Calm     65% 0.00 in meteobridge W/m2
10:24 64.8 °F 54.0 °F 30.16 in Calm     68% 0.00 in meteobridge W/m2
10:29 65.7 °F 51.8 °F 30.16 in Calm     61% 0.00 in meteobridge W/m2
10:34 66.7 °F 51.4 °F 30.16 in Calm     58% 0.00 in meteobridge W/m2
10:39 67.8 °F 52.0 °F 30.16 in Calm     57% 0.00 in meteobridge W/m2
10:44 68.7 °F 52.0 °F 30.17 in NE 0.9 mph 1.0 mph 55% 0.00 in meteobridge W/m2
10:49 70.0 °F 52.5 °F 30.17 in Calm   1.0 mph 54% 0.00 in meteobridge W/m2
10:54 70.9 °F 51.8 °F 30.17 in Calm   3.0 mph 51% 0.00 in meteobridge W/m2
10:59 71.8 °F 53.2 °F 30.17 in Calm     52% 0.00 in meteobridge W/m2
11:04 72.3 °F 52.2 °F 30.17 in Calm   2.0 mph 49% 0.00 in meteobridge W/m2
11:09 73.0 °F 53.8 °F 30.17 in Calm     51% 0.00 in meteobridge W/m2
11:14 73.8 °F 52.9 °F 30.17 in Calm   2.0 mph 48% 0.00 in meteobridge W/m2
11:19 74.3 °F 53.4 °F 30.17 in Calm   2.0 mph 48% 0.00 in meteobridge W/m2
11:24 74.8 °F 52.7 °F 30.17 in NW 0.9 mph 3.0 mph 46% 0.00 in meteobridge W/m2
11:29 75.2 °F 53.1 °F 30.16 in NW 2.0 mph 2.0 mph 46% 0.00 in meteobridge W/m2
11:34 75.6 °F 53.2 °F 30.17 in Calm     46% 0.00 in meteobridge W/m2
11:39 75.9 °F 53.1 °F 30.16 in Calm   5.0 mph 45% 0.00 in meteobridge W/m2
11:44 76.3 °F 52.7 °F 30.16 in NNW 2.0 mph 7.0 mph 44% 0.00 in meteobridge W/m2
11:49 76.1 °F 50.0 °F 30.16 in Calm   7.0 mph 40% 0.00 in meteobridge W/m2
11:54 76.1 °F 50.0 °F 30.16 in Calm   4.0 mph 40% 0.00 in meteobridge W/m2
11:59 76.3 °F 51.4 °F 30.16 in Calm   4.0 mph 42% 0.00 in meteobridge W/m2
12:04 76.1 °F 50.0 °F 30.16 in Calm   2.0 mph 40% 0.00 in meteobridge W/m2
12:09 76.3 °F 50.2 °F 30.16 in Calm   5.0 mph 40% 0.00 in meteobridge W/m2
12:14 76.5 °F 50.4 °F 30.16 in Calm   3.0 mph 40% 0.00 in meteobridge W/m2
12:19 76.3 °F 50.9 °F 30.16 in Calm   5.0 mph 41% 0.00 in meteobridge W/m2
12:24 76.5 °F 51.6 °F 30.16 in Calm   3.0 mph 42% 0.00 in meteobridge W/m2
12:29 76.8 °F 50.7 °F 30.16 in ESE 0.9 mph 2.0 mph 40% 0.00 in meteobridge W/m2
12:34 76.8 °F 51.3 °F 30.16 in Calm   2.0 mph 41% 0.00 in meteobridge W/m2
12:39 77.0 °F 51.4 °F 30.15 in East 0.9 mph 4.0 mph 41% 0.00 in meteobridge W/m2
12:44 77.2 °F 51.1 °F 30.15 in NNW 4.0 mph 4.0 mph 40% 0.00 in meteobridge W/m2
12:49 77.4 °F 52.5 °F 30.15 in Calm   1.0 mph 42% 0.00 in meteobridge W/m2
12:54 77.7 °F 51.4 °F 30.15 in NW 6.0 mph 6.0 mph 40% 0.00 in meteobridge W/m2
12:59 77.7 °F 51.4 °F 30.15 in WNW 0.9 mph 4.0 mph 40% 0.00 in meteobridge W/m2
13:04 78.1 °F 50.4 °F 30.14 in ENE 2.0 mph 3.0 mph 38% 0.00 in meteobridge W/m2
13:09 78.1 °F 51.8 °F 30.14 in Calm   4.0 mph 40% 0.00 in meteobridge W/m2
13:14 78.1 °F 51.8 °F 30.14 in NNW 0.9 mph 3.0 mph 40% 0.00 in meteobridge W/m2
13:19 78.3 °F 52.0 °F 30.14 in Calm   1.0 mph 40% 0.00 in meteobridge W/m2
13:24 78.4 °F 52.2 °F 30.14 in Calm   3.0 mph 40% 0.00 in meteobridge W/m2
13:29 78.4 °F 52.7 °F 30.14 in Calm   4.0 mph 41% 0.00 in meteobridge W/m2
13:34 78.4 °F 51.4 °F 30.14 in Calm     39% 0.00 in meteobridge W/m2
13:39 78.4 °F 52.2 °F 30.13 in ESE 2.0 mph 4.0 mph 40% 0.00 in meteobridge W/m2
13:44 78.4 °F 50.7 °F 30.13 in ESE 0.9 mph 4.0 mph 38% 0.00 in meteobridge W/m2
13:49 78.3 °F 50.5 °F 30.13 in North 0.9 mph 4.0 mph 38% 0.00 in meteobridge W/m2
13:54 78.1 °F 49.6 °F 30.13 in Calm   3.0 mph 37% 0.00 in meteobridge W/m2
13:59 78.1 °F 49.6 °F 30.12 in Calm   2.0 mph 37% 0.00 in meteobridge W/m2
14:04 77.5 °F 50.5 °F 30.12 in Calm   1.0 mph 39% 0.00 in meteobridge W/m2
14:09 77.2 °F 51.6 °F 30.12 in Calm   4.0 mph 41% 0.00 in meteobridge W/m2
14:14 77.2 °F 51.6 °F 30.12 in SE 2.0 mph 5.0 mph 41% 0.00 in meteobridge W/m2
14:19 77.2 °F 51.6 °F 30.12 in Calm   5.0 mph 41% 0.00 in meteobridge W/m2
14:24 77.4 °F 52.5 °F 30.12 in Calm   2.0 mph 42% 0.00 in meteobridge W/m2
14:29 77.5 °F 52.7 °F 30.12 in NE 0.9 mph 2.0 mph 42% 0.00 in meteobridge W/m2
14:34 77.5 °F 53.2 °F 30.11 in Calm   3.0 mph 43% 0.00 in meteobridge W/m2
14:39 77.7 °F 51.4 °F 30.11 in Calm   1.0 mph 40% 0.00 in meteobridge W/m2
14:44 77.7 °F 50.7 °F 30.11 in Calm   7.0 mph 39% 0.00 in meteobridge W/m2
14:49 77.7 °F 50.0 °F 30.11 in Calm   7.0 mph 38% 0.00 in meteobridge W/m2
14:54 77.7 °F 51.4 °F 30.10 in ESE 0.9 mph 2.0 mph 40% 0.00 in meteobridge W/m2
14:59 78.1 °F 51.1 °F 30.10 in Calm   6.0 mph 39% 0.00 in meteobridge W/m2
15:04 78.3 °F 51.3 °F 30.10 in East 2.0 mph 4.0 mph 39% 0.00 in meteobridge W/m2
15:09 78.4 °F 52.2 °F 30.10 in Calm   3.0 mph 40% 0.00 in meteobridge W/m2
15:14 78.6 °F 52.9 °F 30.10 in NW 0.9 mph 5.0 mph 41% 0.00 in meteobridge W/m2
15:19 78.4 °F 51.4 °F 30.09 in WNW 0.9 mph 2.0 mph 39% 0.00 in meteobridge W/m2
15:24 78.4 °F 52.2 °F 30.09 in Calm   4.0 mph 40% 0.00 in meteobridge W/m2
15:29 78.4 °F 51.4 °F 30.09 in Calm   4.0 mph 39% 0.00 in meteobridge W/m2
15:34 78.4 °F 52.7 °F 30.09 in NNW 4.0 mph 4.0 mph 41% 0.00 in meteobridge W/m2
15:39 78.6 °F 51.6 °F 30.09 in Calm   3.0 mph 39% 0.00 in meteobridge W/m2
15:44 78.8 °F 53.8 °F 30.09 in Calm   1.0 mph 42% 0.00 in meteobridge W/m2
15:49 78.8 °F 51.1 °F 30.08 in NW 4.0 mph 5.0 mph 38% 0.00 in meteobridge W/m2
15:54 78.8 °F 52.5 °F 30.08 in NNW 4.0 mph 7.0 mph 40% 0.00 in meteobridge W/m2
15:59 79.0 °F 53.2 °F 30.08 in Calm     41% 0.00 in meteobridge W/m2
16:04 79.0 °F 52.0 °F 30.08 in Calm   1.0 mph 39% 0.00 in meteobridge W/m2
16:09 78.6 °F 50.9 °F 30.07 in Calm   6.0 mph 38% 0.00 in meteobridge W/m2
16:14 78.6 °F 50.9 °F 30.07 in Calm   2.0 mph 38% 0.00 in meteobridge W/m2
16:19 78.6 °F 52.3 °F 30.07 in Calm   2.0 mph 40% 0.00 in meteobridge W/m2
16:24 78.8 °F 51.8 °F 30.07 in ENE 0.9 mph 3.0 mph 39% 0.00 in meteobridge W/m2
16:29 78.8 °F 50.4 °F 30.07 in Calm   2.0 mph 37% 0.00 in meteobridge W/m2
16:34 78.6 °F 50.9 °F 30.06 in NE 0.9 mph 2.0 mph 38% 0.00 in meteobridge W/m2
16:39 78.6 °F 52.3 °F 30.06 in Calm   1.0 mph 40% 0.00 in meteobridge W/m2
16:44 78.6 °F 51.6 °F 30.06 in Calm   5.0 mph 39% 0.00 in meteobridge W/m2
16:49 78.6 °F 51.6 °F 30.06 in Calm   6.0 mph 39% 0.00 in meteobridge W/m2
16:54 78.6 °F 51.6 °F 30.06 in Calm   3.0 mph 39% 0.00 in meteobridge W/m2
16:59 78.8 °F 51.8 °F 30.06 in Calm   1.0 mph 39% 0.00 in meteobridge W/m2
17:04 78.8 °F 51.8 °F 30.06 in Calm   5.0 mph 39% 0.00 in meteobridge W/m2
17:09 78.8 °F 52.5 °F 30.06 in Calm     40% 0.00 in meteobridge W/m2
17:14 78.6 °F 51.6 °F 30.06 in ESE 0.9 mph 4.0 mph 39% 0.00 in meteobridge W/m2
17:19 78.4 °F 51.4 °F 30.06 in Calm     39% 0.00 in meteobridge W/m2
17:24 78.4 °F 51.4 °F 30.06 in Calm   2.0 mph 39% 0.00 in meteobridge W/m2
17:29 78.4 °F 52.2 °F 30.06 in Calm   1.0 mph 40% 0.00 in meteobridge W/m2
17:34 78.6 °F 51.6 °F 30.06 in Calm   3.0 mph 39% 0.00 in meteobridge W/m2
17:39 78.6 °F 53.6 °F 30.06 in Calm     42% 0.00 in meteobridge W/m2
17:44 78.4 °F 49.3 °F 30.06 in NE 0.9 mph 5.0 mph 36% 0.00 in meteobridge W/m2
17:49 78.4 °F 50.0 °F 30.06 in Calm   1.0 mph 37% 0.00 in meteobridge W/m2
17:54 78.3 °F 49.8 °F 30.06 in Calm   1.0 mph 37% 0.00 in meteobridge W/m2
17:59 78.1 °F 49.6 °F 30.06 in Calm   1.0 mph 37% 0.00 in meteobridge W/m2
18:04 77.7 °F 51.4 °F 30.06 in NW 2.0 mph 5.0 mph 40% 0.00 in meteobridge W/m2
18:09 77.5 °F 50.0 °F 30.06 in Calm   3.0 mph 38% 0.00 in meteobridge W/m2
18:14 77.2 °F 51.1 °F 30.06 in Calm   1.0 mph 40% 0.00 in meteobridge W/m2
18:19 77.0 °F 49.5 °F 30.06 in Calm   1.0 mph 38% 0.00 in meteobridge W/m2
18:24 76.6 °F 48.4 °F 30.06 in Calm   2.0 mph 37% 0.00 in meteobridge W/m2
18:29 76.5 °F 48.9 °F 30.06 in Calm     38% 0.00 in meteobridge W/m2
18:34 76.3 °F 50.2 °F 30.06 in Calm   1.0 mph 40% 0.00 in meteobridge W/m2
18:39 75.9 °F 49.1 °F 30.06 in Calm   2.0 mph 39% 0.00 in meteobridge W/m2
18:44 75.7 °F 47.7 °F 30.06 in Calm   1.0 mph 37% 0.00 in meteobridge W/m2
18:49 75.6 °F 48.2 °F 30.05 in Calm   1.0 mph 38% 0.00 in meteobridge W/m2
18:54 75.4 °F 48.0 °F 30.05 in Calm     38% 0.00 in meteobridge W/m2
18:59 75.0 °F 48.4 °F 30.05 in Calm     39% 0.00 in meteobridge W/m2
19:04 74.7 °F 49.5 °F 30.06 in Calm     41% 0.00 in meteobridge W/m2
19:09 74.3 °F 51.6 °F 30.06 in Calm     45% 0.00 in meteobridge W/m2
19:14 73.8 °F 49.3 °F 30.05 in Calm     42% 0.00 in meteobridge W/m2
19:19 73.6 °F 50.4 °F 30.06 in Calm     44% 0.00 in meteobridge W/m2
19:24 73.2 °F 48.7 °F 30.06 in Calm     42% 0.00 in meteobridge W/m2
19:29 72.9 °F 49.6 °F 30.06 in Calm     44% 0.00 in meteobridge W/m2
19:34 72.7 °F 50.2 °F 30.06 in Calm     45% 0.00 in meteobridge W/m2
19:39 72.3 °F 49.8 °F 30.06 in Calm     45% 0.00 in meteobridge W/m2
19:44 72.0 °F 50.7 °F 30.06 in Calm     47% 0.00 in meteobridge W/m2
19:49 71.6 °F 50.4 °F 30.06 in Calm     47% 0.00 in meteobridge W/m2
19:54 71.2 °F 51.1 °F 30.06 in Calm     49% 0.00 in meteobridge W/m2
19:59 71.1 °F 49.8 °F 30.06 in Calm     47% 0.00 in meteobridge W/m2
20:04 70.7 °F 50.0 °F 30.06 in Calm     48% 0.00 in meteobridge W/m2
20:09 70.3 °F 49.6 °F 30.06 in Calm     48% 0.00 in meteobridge W/m2
20:14 70.2 °F 50.2 °F 30.06 in Calm     49% 0.00 in meteobridge W/m2
20:19 69.8 °F 49.8 °F 30.06 in Calm     49% 0.00 in meteobridge W/m2
20:24 69.4 °F 50.5 °F 30.07 in Calm     51% 0.00 in meteobridge W/m2
20:29 69.1 °F 51.3 °F 30.07 in Calm     53% 0.00 in meteobridge W/m2
20:34 68.5 °F 50.7 °F 30.07 in Calm     53% 0.00 in meteobridge W/m2
20:39 68.2 °F 51.4 °F 30.07 in Calm     55% 0.00 in meteobridge W/m2
20:44 67.6 °F 51.4 °F 30.07 in Calm     56% 0.00 in meteobridge W/m2
20:49 67.3 °F 51.1 °F 30.07 in Calm     56% 0.00 in meteobridge W/m2
20:54 66.6 °F 51.3 °F 30.07 in Calm     58% 0.00 in meteobridge W/m2
20:59 66.0 °F 51.3 °F 30.07 in Calm     59% 0.00 in meteobridge W/m2
21:04 65.5 °F 51.3 °F 30.07 in Calm     60% 0.00 in meteobridge W/m2
21:09 64.9 °F 51.6 °F 30.07 in Calm     62% 0.00 in meteobridge W/m2
21:14 64.2 °F 51.4 °F 30.07 in Calm     63% 0.00 in meteobridge W/m2
21:19 63.7 °F 51.3 °F 30.07 in Calm     64% 0.00 in meteobridge W/m2
21:24 63.1 °F 51.3 °F 30.07 in Calm     65% 0.00 in meteobridge W/m2
21:29 62.8 °F 51.3 °F 30.07 in Calm     66% 0.00 in meteobridge W/m2
21:34 62.4 °F 51.3 °F 30.07 in Calm     67% 0.00 in meteobridge W/m2
21:39 62.1 °F 51.4 °F 30.08 in Calm     68% 0.00 in meteobridge W/m2
21:44 61.7 °F 51.4 °F 30.08 in Calm     69% 0.00 in meteobridge W/m2
21:49 61.3 °F 51.4 °F 30.08 in Calm     70% 0.00 in meteobridge W/m2
21:54 61.2 °F 51.6 °F 30.08 in Calm     71% 0.00 in meteobridge W/m2
21:59 60.8 °F 51.3 °F 30.08 in Calm     71% 0.00 in meteobridge W/m2
22:04 60.4 °F 51.4 °F 30.08 in Calm     72% 0.00 in meteobridge W/m2
22:09 60.3 °F 51.6 °F 30.08 in Calm     73% 0.00 in meteobridge W/m2
22:14 60.1 °F 51.4 °F 30.08 in Calm     73% 0.00 in meteobridge W/m2
22:19 59.7 °F 51.4 °F 30.08 in Calm     74% 0.00 in meteobridge W/m2
22:24 59.5 °F 51.6 °F 30.08 in Calm     75% 0.00 in meteobridge W/m2
22:29 59.4 °F 51.4 °F 30.08 in Calm     75% 0.00 in meteobridge W/m2
22:34 59.2 °F 51.6 °F 30.08 in Calm     76% 0.00 in meteobridge W/m2
22:39 58.8 °F 51.6 °F 30.07 in Calm     77% 0.00 in meteobridge W/m2
22:44 58.5 °F 51.3 °F 30.08 in Calm     77% 0.00 in meteobridge W/m2
22:49 58.3 °F 51.4 °F 30.08 in Calm     78% 0.00 in meteobridge W/m2
22:54 58.1 °F 51.3 °F 30.08 in Calm     78% 0.00 in meteobridge W/m2
22:59 57.7 °F 51.3 °F 30.07 in Calm     79% 0.00 in meteobridge W/m2
23:04 57.6 °F 51.4 °F 30.07 in Calm     80% 0.00 in meteobridge W/m2
23:09 57.6 °F 51.1 °F 30.07 in Calm     79% 0.00 in meteobridge W/m2
23:14 57.4 °F 51.3 °F 30.07 in Calm     80% 0.00 in meteobridge W/m2
23:19 57.2 °F 51.1 °F 30.07 in Calm     80% 0.00 in meteobridge W/m2
23:24 57.0 °F 50.9 °F 30.07 in Calm     80% 0.00 in meteobridge W/m2
23:29 57.0 °F 51.3 °F 30.07 in Calm     81% 0.00 in meteobridge W/m2
23:34 56.8 °F 51.1 °F 30.07 in Calm     81% 0.00 in meteobridge W/m2
23:39 56.7 °F 51.3 °F 30.07 in Calm     82% 0.00 in meteobridge W/m2
23:44 56.3 °F 50.9 °F 30.07 in Calm     82% 0.00 in meteobridge W/m2
23:49 56.1 °F 51.1 °F 30.07 in Calm     83% 0.00 in meteobridge W/m2
23:54 55.9 °F 50.9 °F 30.06 in Calm     83% 0.00 in meteobridge W/m2
23:59 55.8 °F 51.1 °F 30.06 in Calm     84% 0.00 in meteobridge W/m2
EllijayWeather
Compliments of Weather Underground - 2.5 mb